• pl
  • eng

Awiacja
WIADOMOŚCI
ostatnia aktualizacja: 26.09.2019 09:57
Uprzejmie informujemy, że od dnia 2.09.2019 jest dostępna w formie testowej prognoza GAFOR. Prosimy o przesyłanie na adres gafor@imgw.pl uwag i sugestii, które przyczynią się do rozwoju produktu.
Kliknij na pogrubioną czerwoną nazwę, aby odkodować depeszę. 16:01 20.02.2020
  • WIND
  • SIGNIFICANT EURO
  • SIGNIFICANT
  • SIGMET
  • AIRMET
  • TAF FC
  • TAF FT
  • METAR GG30
  • METAR GG00


METAR EPBY 201500Z 21011KT 170V240 CAVOK 07/M02 Q1018=

METAR EPGD 201500Z 17011KT 9999 SCT023 05/01 Q1016 =

METAR EPKK 201500Z 22004KT 9999 BKN045 04/01 Q1022 =

METAR EPKT 201500Z 21005KT 9999 FEW042 04/M02 Q1021 =

METAR EPLB 201500Z 31004KT 9999 FEW023 05/02 Q1021 =

METAR EPLL 201500Z 16003KT 120V220 9999 FEW024 BKN040 05/02 Q1020 =

METAR EPMO 201500Z 18004KT 9999 FEW025 BKN041 05/M00 Q1020 =

METAR EPPO 201500Z 19013KT CAVOK 08/M02 Q1018 =

METAR EPRA 201500Z NIL=

METAR EPRZ 201500Z 27009KT 9999 -SHRA FEW009 BKN020CB 03/01 Q1022 =

METAR EPSC 201500Z 17010KT 9999 -RA SCT016 BKN019 06/03 Q1014 =

METAR EPSY 201500Z 21011KT 9999 BKN040 05/M00 Q1019=

METAR EPWA 201500Z 19003KT 160V220 9999 BKN042 05/M00 Q1021 NOSIG=

METAR EPWR 201500Z 21009KT CAVOK 08/M01 Q1019 =

METAR EPZG 201500Z 19007KT 150V210 9999 SCT037 08/00 Q1018 =
Awiacja.imgw.pl jest pogodowym serwisem informacyjnym
Instytutu Meteorologii i Gospodarki Wodnej Państwowego Instytutu Badawczego.
Copyright IMGW PIB 2009-2019© Wszelkie prawa zastrzeżone.